sensor_id;sensor_type;location;lat;lon;timestamp;P1;durP1;ratioP1;P2;durP2;ratioP2
14681;SDS011;7429;52.498;13.480;2023-07-13T00:02:18;4.63;;;4.13;;
14681;SDS011;7429;52.498;13.480;2023-07-13T00:05:21;5.75;;;4.57;;
14681;SDS011;7429;52.498;13.480;2023-07-13T00:08:25;5.72;;;5.20;;
14681;SDS011;7429;52.498;13.480;2023-07-13T00:11:31;6.53;;;5.25;;
14681;SDS011;7429;52.498;13.480;2023-07-13T00:14:34;5.60;;;4.50;;
14681;SDS011;7429;52.498;13.480;2023-07-13T00:17:38;5.90;;;4.72;;
14681;SDS011;7429;52.498;13.480;2023-07-13T00:20:42;11.32;;;6.00;;
14681;SDS011;7429;52.498;13.480;2023-07-13T00:23:45;7.05;;;6.43;;
14681;SDS011;7429;52.498;13.480;2023-07-13T00:26:50;10.07;;;5.68;;
14681;SDS011;7429;52.498;13.480;2023-07-13T00:29:53;5.88;;;5.25;;
14681;SDS011;7429;52.498;13.480;2023-07-13T00:32:56;8.65;;;5.50;;
14681;SDS011;7429;52.498;13.480;2023-07-13T00:36:19;7.35;;;6.22;;
14681;SDS011;7429;52.498;13.480;2023-07-13T00:39:23;6.80;;;5.95;;
14681;SDS011;7429;52.498;13.480;2023-07-13T00:42:28;6.10;;;5.60;;
14681;SDS011;7429;52.498;13.480;2023-07-13T00:49:33;6.68;;;6.03;;
14681;SDS011;7429;52.498;13.480;2023-07-13T00:52:39;7.45;;;5.95;;
14681;SDS011;7429;52.498;13.480;2023-07-13T00:55:47;13.30;;;8.07;;
14681;SDS011;7429;52.498;13.480;2023-07-13T00:58:54;8.52;;;7.75;;
14681;SDS011;7429;52.498;13.480;2023-07-13T01:01:58;7.90;;;7.20;;
14681;SDS011;7429;52.498;13.480;2023-07-13T01:05:04;7.43;;;5.93;;
14681;SDS011;7429;52.498;13.480;2023-07-13T01:08:11;7.20;;;6.60;;
14681;SDS011;7429;52.498;13.480;2023-07-13T01:11:18;8.27;;;7.32;;
14681;SDS011;7429;52.498;13.480;2023-07-13T01:14:25;8.95;;;6.80;;
14681;SDS011;7429;52.498;13.480;2023-07-13T01:17:29;7.97;;;7.20;;
14681;SDS011;7429;52.498;13.480;2023-07-13T01:20:35;10.82;;;9.77;;
14681;SDS011;7429;52.498;13.480;2023-07-13T01:23:40;12.43;;;11.38;;
14681;SDS011;7429;52.498;13.480;2023-07-13T01:26:43;8.57;;;6.72;;
14681;SDS011;7429;52.498;13.480;2023-07-13T01:29:47;8.05;;;7.25;;
14681;SDS011;7429;52.498;13.480;2023-07-13T01:32:51;13.25;;;9.15;;
14681;SDS011;7429;52.498;13.480;2023-07-13T01:35:54;9.00;;;8.18;;
14681;SDS011;7429;52.498;13.480;2023-07-13T01:39:00;8.23;;;7.05;;
14681;SDS011;7429;52.498;13.480;2023-07-13T01:42:03;8.80;;;7.15;;
14681;SDS011;7429;52.498;13.480;2023-07-13T01:45:07;10.45;;;9.75;;
14681;SDS011;7429;52.498;13.480;2023-07-13T01:48:10;7.05;;;6.32;;
14681;SDS011;7429;52.498;13.480;2023-07-13T01:51:15;7.30;;;5.85;;
14681;SDS011;7429;52.498;13.480;2023-07-13T01:54:21;9.60;;;8.93;;
14681;SDS011;7429;52.498;13.480;2023-07-13T01:57:24;7.55;;;6.55;;
14681;SDS011;7429;52.498;13.480;2023-07-13T02:00:28;7.97;;;7.05;;
14681;SDS011;7429;52.498;13.480;2023-07-13T02:03:31;7.65;;;7.15;;
14681;SDS011;7429;52.498;13.480;2023-07-13T02:06:34;7.93;;;7.32;;
14681;SDS011;7429;52.498;13.480;2023-07-13T02:09:39;9.93;;;9.13;;
14681;SDS011;7429;52.498;13.480;2023-07-13T02:12:43;8.27;;;7.40;;
14681;SDS011;7429;52.498;13.480;2023-07-13T02:15:49;7.18;;;6.50;;
14681;SDS011;7429;52.498;13.480;2023-07-13T02:18:52;9.15;;;7.07;;
14681;SDS011;7429;52.498;13.480;2023-07-13T02:21:57;7.40;;;6.53;;
14681;SDS011;7429;52.498;13.480;2023-07-13T02:25:01;7.35;;;5.90;;
14681;SDS011;7429;52.498;13.480;2023-07-13T02:28:05;9.20;;;7.03;;
14681;SDS011;7429;52.498;13.480;2023-07-13T02:31:09;6.90;;;6.28;;
14681;SDS011;7429;52.498;13.480;2023-07-13T02:34:14;7.70;;;6.63;;
14681;SDS011;7429;52.498;13.480;2023-07-13T02:37:17;8.95;;;6.80;;
14681;SDS011;7429;52.498;13.480;2023-07-13T02:40:22;6.55;;;5.75;;
14681;SDS011;7429;52.498;13.480;2023-07-13T02:43:26;10.35;;;8.70;;
14681;SDS011;7429;52.498;13.480;2023-07-13T02:46:29;9.88;;;8.30;;
14681;SDS011;7429;52.498;13.480;2023-07-13T02:49:32;9.35;;;8.38;;
14681;SDS011;7429;52.498;13.480;2023-07-13T02:52:36;8.77;;;6.88;;
14681;SDS011;7429;52.498;13.480;2023-07-13T02:55:40;7.57;;;6.97;;
14681;SDS011;7429;52.498;13.480;2023-07-13T02:58:48;11.60;;;8.30;;
14681;SDS011;7429;52.498;13.480;2023-07-13T03:01:52;8.18;;;7.55;;
14681;SDS011;7429;52.498;13.480;2023-07-13T03:04:55;10.13;;;9.00;;
14681;SDS011;7429;52.498;13.480;2023-07-13T03:07:58;8.40;;;7.70;;
14681;SDS011;7429;52.498;13.480;2023-07-13T03:11:04;6.82;;;5.70;;
14681;SDS011;7429;52.498;13.480;2023-07-13T03:14:12;6.63;;;5.95;;
14681;SDS011;7429;52.498;13.480;2023-07-13T03:17:16;8.25;;;6.47;;
14681;SDS011;7429;52.498;13.480;2023-07-13T03:20:19;8.43;;;7.57;;
14681;SDS011;7429;52.498;13.480;2023-07-13T03:23:23;8.73;;;7.82;;
14681;SDS011;7429;52.498;13.480;2023-07-13T03:26:28;7.55;;;6.90;;
14681;SDS011;7429;52.498;13.480;2023-07-13T03:29:31;9.05;;;7.45;;
14681;SDS011;7429;52.498;13.480;2023-07-13T03:32:35;8.32;;;6.60;;
14681;SDS011;7429;52.498;13.480;2023-07-13T03:35:40;6.07;;;5.57;;
14681;SDS011;7429;52.498;13.480;2023-07-13T03:38:44;6.95;;;5.85;;
14681;SDS011;7429;52.498;13.480;2023-07-13T03:41:53;7.82;;;7.15;;
14681;SDS011;7429;52.498;13.480;2023-07-13T03:44:57;8.98;;;8.10;;
14681;SDS011;7429;52.498;13.480;2023-07-13T03:48:00;14.07;;;7.30;;
14681;SDS011;7429;52.498;13.480;2023-07-13T03:51:03;9.68;;;6.25;;
14681;SDS011;7429;52.498;13.480;2023-07-13T03:54:06;8.18;;;5.85;;
14681;SDS011;7429;52.498;13.480;2023-07-13T03:57:11;7.97;;;6.07;;
14681;SDS011;7429;52.498;13.480;2023-07-13T04:00:14;7.72;;;7.13;;
14681;SDS011;7429;52.498;13.480;2023-07-13T04:03:17;7.07;;;6.10;;
14681;SDS011;7429;52.498;13.480;2023-07-13T04:06:21;8.32;;;5.10;;
14681;SDS011;7429;52.498;13.480;2023-07-13T04:09:27;7.68;;;6.93;;
14681;SDS011;7429;52.498;13.480;2023-07-13T04:12:32;8.45;;;7.13;;
14681;SDS011;7429;52.498;13.480;2023-07-13T04:15:35;5.97;;;4.75;;
14681;SDS011;7429;52.498;13.480;2023-07-13T04:18:38;6.93;;;5.57;;
14681;SDS011;7429;52.498;13.480;2023-07-13T04:21:45;7.10;;;6.30;;
14681;SDS011;7429;52.498;13.480;2023-07-13T04:24:50;5.88;;;5.32;;
14681;SDS011;7429;52.498;13.480;2023-07-13T04:27:58;6.90;;;6.40;;
14681;SDS011;7429;52.498;13.480;2023-07-13T04:31:01;6.15;;;5.65;;
14681;SDS011;7429;52.498;13.480;2023-07-13T04:34:05;10.23;;;6.25;;
14681;SDS011;7429;52.498;13.480;2023-07-13T04:37:08;10.75;;;6.30;;
14681;SDS011;7429;52.498;13.480;2023-07-13T04:40:11;6.80;;;6.20;;
14681;SDS011;7429;52.498;13.480;2023-07-13T04:43:16;11.00;;;6.68;;
14681;SDS011;7429;52.498;13.480;2023-07-13T04:46:19;8.88;;;8.05;;
14681;SDS011;7429;52.498;13.480;2023-07-13T04:49:22;10.73;;;6.95;;
14681;SDS011;7429;52.498;13.480;2023-07-13T04:52:25;6.43;;;5.88;;
14681;SDS011;7429;52.498;13.480;2023-07-13T04:55:28;6.72;;;6.22;;
14681;SDS011;7429;52.498;13.480;2023-07-13T04:58:33;8.68;;;7.80;;
14681;SDS011;7429;52.498;13.480;2023-07-13T05:01:37;11.23;;;7.78;;
14681;SDS011;7429;52.498;13.480;2023-07-13T05:04:42;9.25;;;7.10;;
14681;SDS011;7429;52.498;13.480;2023-07-13T05:07:49;8.88;;;8.00;;
14681;SDS011;7429;52.498;13.480;2023-07-13T05:10:56;7.13;;;6.50;;
14681;SDS011;7429;52.498;13.480;2023-07-13T05:14:03;8.27;;;6.85;;
14681;SDS011;7429;52.498;13.480;2023-07-13T05:17:06;10.27;;;5.90;;
14681;SDS011;7429;52.498;13.480;2023-07-13T05:20:09;8.07;;;5.55;;
14681;SDS011;7429;52.498;13.480;2023-07-13T05:23:12;10.02;;;5.10;;
14681;SDS011;7429;52.498;13.480;2023-07-13T05:26:20;6.65;;;4.78;;
14681;SDS011;7429;52.498;13.480;2023-07-13T05:29:25;6.57;;;4.13;;
14681;SDS011;7429;52.498;13.480;2023-07-13T05:32:28;9.77;;;5.88;;
14681;SDS011;7429;52.498;13.480;2023-07-13T05:35:35;10.18;;;5.00;;
14681;SDS011;7429;52.498;13.480;2023-07-13T05:38:39;8.20;;;4.70;;
14681;SDS011;7429;52.498;13.480;2023-07-13T05:41:42;10.10;;;5.18;;
14681;SDS011;7429;52.498;13.480;2023-07-13T05:44:48;7.93;;;5.68;;
14681;SDS011;7429;52.498;13.480;2023-07-13T05:47:55;8.57;;;6.32;;
14681;SDS011;7429;52.498;13.480;2023-07-13T05:51:01;5.80;;;5.30;;
14681;SDS011;7429;52.498;13.480;2023-07-13T05:54:05;7.72;;;4.47;;
14681;SDS011;7429;52.498;13.480;2023-07-13T05:57:10;5.10;;;4.20;;
14681;SDS011;7429;52.498;13.480;2023-07-13T06:00:17;8.35;;;4.88;;
14681;SDS011;7429;52.498;13.480;2023-07-13T06:03:21;8.75;;;4.97;;
14681;SDS011;7429;52.498;13.480;2023-07-13T06:06:24;7.57;;;6.53;;
14681;SDS011;7429;52.498;13.480;2023-07-13T06:09:30;6.63;;;4.43;;
14681;SDS011;7429;52.498;13.480;2023-07-13T06:12:33;7.95;;;4.78;;
14681;SDS011;7429;52.498;13.480;2023-07-13T06:15:38;7.38;;;4.78;;
14681;SDS011;7429;52.498;13.480;2023-07-13T06:18:41;7.13;;;5.05;;
14681;SDS011;7429;52.498;13.480;2023-07-13T06:21:45;5.75;;;4.68;;
14681;SDS011;7429;52.498;13.480;2023-07-13T06:24:48;7.70;;;4.90;;
14681;SDS011;7429;52.498;13.480;2023-07-13T06:27:53;7.10;;;5.05;;
14681;SDS011;7429;52.498;13.480;2023-07-13T06:30:57;8.10;;;5.22;;
14681;SDS011;7429;52.498;13.480;2023-07-13T06:34:01;10.05;;;4.78;;
14681;SDS011;7429;52.498;13.480;2023-07-13T06:37:08;8.00;;;5.40;;
14681;SDS011;7429;52.498;13.480;2023-07-13T06:40:12;8.23;;;4.65;;
14681;SDS011;7429;52.498;13.480;2023-07-13T06:43:15;5.70;;;4.15;;
14681;SDS011;7429;52.498;13.480;2023-07-13T06:46:24;9.10;;;4.05;;
14681;SDS011;7429;52.498;13.480;2023-07-13T06:49:27;7.22;;;4.60;;
14681;SDS011;7429;52.498;13.480;2023-07-13T06:52:30;7.13;;;4.85;;
14681;SDS011;7429;52.498;13.480;2023-07-13T06:55:33;6.05;;;4.00;;
14681;SDS011;7429;52.498;13.480;2023-07-13T06:58:37;7.43;;;4.65;;
14681;SDS011;7429;52.498;13.480;2023-07-13T07:01:41;8.57;;;4.55;;
14681;SDS011;7429;52.498;13.480;2023-07-13T07:04:44;13.38;;;4.32;;
14681;SDS011;7429;52.498;13.480;2023-07-13T07:07:47;9.55;;;4.00;;
14681;SDS011;7429;52.498;13.480;2023-07-13T07:10:52;8.38;;;4.45;;
14681;SDS011;7429;52.498;13.480;2023-07-13T07:13:55;7.80;;;4.32;;
14681;SDS011;7429;52.498;13.480;2023-07-13T07:17:00;5.65;;;3.38;;
14681;SDS011;7429;52.498;13.480;2023-07-13T07:20:04;5.22;;;3.60;;
14681;SDS011;7429;52.498;13.480;2023-07-13T07:23:11;4.18;;;3.63;;
14681;SDS011;7429;52.498;13.480;2023-07-13T07:26:14;6.20;;;4.55;;
14681;SDS011;7429;52.498;13.480;2023-07-13T07:29:18;4.45;;;3.58;;
14681;SDS011;7429;52.498;13.480;2023-07-13T07:32:25;5.70;;;3.50;;
14681;SDS011;7429;52.498;13.480;2023-07-13T07:35:48;2.83;;;2.10;;
14681;SDS011;7429;52.498;13.480;2023-07-13T07:38:58;5.50;;;2.90;;
14681;SDS011;7429;52.498;13.480;2023-07-13T07:42:01;4.18;;;2.45;;
14681;SDS011;7429;52.498;13.480;2023-07-13T07:45:04;7.15;;;3.33;;
14681;SDS011;7429;52.498;13.480;2023-07-13T07:48:10;3.75;;;3.25;;
14681;SDS011;7429;52.498;13.480;2023-07-13T07:51:19;5.22;;;3.38;;
14681;SDS011;7429;52.498;13.480;2023-07-13T07:54:26;5.30;;;2.60;;
14681;SDS011;7429;52.498;13.480;2023-07-13T07:57:49;10.57;;;2.90;;
14681;SDS011;7429;52.498;13.480;2023-07-13T08:01:01;3.35;;;2.25;;
14681;SDS011;7429;52.498;13.480;2023-07-13T08:04:11;3.10;;;2.90;;
14681;SDS011;7429;52.498;13.480;2023-07-13T08:07:35;3.60;;;2.80;;
14681;SDS011;7429;52.498;13.480;2023-07-13T08:10:39;5.00;;;2.58;;
14681;SDS011;7429;52.498;13.480;2023-07-13T08:13:42;4.00;;;2.95;;
14681;SDS011;7429;52.498;13.480;2023-07-13T08:16:48;4.47;;;3.95;;
14681;SDS011;7429;52.498;13.480;2023-07-13T08:19:55;11.77;;;2.80;;
14681;SDS011;7429;52.498;13.480;2023-07-13T08:22:58;12.02;;;3.20;;
14681;SDS011;7429;52.498;13.480;2023-07-13T08:26:02;5.05;;;2.47;;
14681;SDS011;7429;52.498;13.480;2023-07-13T08:29:06;4.72;;;3.10;;
14681;SDS011;7429;52.498;13.480;2023-07-13T08:32:09;6.03;;;3.13;;
14681;SDS011;7429;52.498;13.480;2023-07-13T08:35:14;3.28;;;2.78;;
14681;SDS011;7429;52.498;13.480;2023-07-13T08:38:18;5.43;;;2.83;;
14681;SDS011;7429;52.498;13.480;2023-07-13T08:41:23;3.55;;;2.30;;
14681;SDS011;7429;52.498;13.480;2023-07-13T08:44:30;4.85;;;3.20;;
14681;SDS011;7429;52.498;13.480;2023-07-13T08:47:44;4.75;;;2.97;;
14681;SDS011;7429;52.498;13.480;2023-07-13T08:50:57;5.65;;;2.80;;
14681;SDS011;7429;52.498;13.480;2023-07-13T08:54:09;3.35;;;2.78;;
14681;SDS011;7429;52.498;13.480;2023-07-13T08:57:21;5.85;;;3.40;;
14681;SDS011;7429;52.498;13.480;2023-07-13T09:00:34;5.13;;;3.67;;
14681;SDS011;7429;52.498;13.480;2023-07-13T09:04:09;3.95;;;2.92;;
14681;SDS011;7429;52.498;13.480;2023-07-13T09:07:32;4.38;;;2.97;;
14681;SDS011;7429;52.498;13.480;2023-07-13T09:11:04;3.97;;;3.58;;
14681;SDS011;7429;52.498;13.480;2023-07-13T09:14:34;4.00;;;3.58;;
14681;SDS011;7429;52.498;13.480;2023-07-13T09:17:46;4.05;;;3.20;;
14681;SDS011;7429;52.498;13.480;2023-07-13T09:20:56;5.78;;;3.63;;
14681;SDS011;7429;52.498;13.480;2023-07-13T09:24:22;5.70;;;2.88;;
14681;SDS011;7429;52.498;13.480;2023-07-13T09:27:38;4.05;;;2.20;;
14681;SDS011;7429;52.498;13.480;2023-07-13T09:30:46;6.57;;;2.60;;
14681;SDS011;7429;52.498;13.480;2023-07-13T09:33:56;3.42;;;1.98;;
14681;SDS011;7429;52.498;13.480;2023-07-13T09:37:09;3.05;;;2.58;;
14681;SDS011;7429;52.498;13.480;2023-07-13T09:40:17;4.68;;;2.40;;
14681;SDS011;7429;52.498;13.480;2023-07-13T09:43:29;3.30;;;2.38;;
14681;SDS011;7429;52.498;13.480;2023-07-13T09:46:33;6.18;;;2.70;;
14681;SDS011;7429;52.498;13.480;2023-07-13T09:49:36;6.18;;;2.58;;
14681;SDS011;7429;52.498;13.480;2023-07-13T09:52:51;7.15;;;2.60;;
14681;SDS011;7429;52.498;13.480;2023-07-13T09:55:57;2.75;;;2.55;;
14681;SDS011;7429;52.498;13.480;2023-07-13T09:59:01;9.13;;;3.05;;
14681;SDS011;7429;52.498;13.480;2023-07-13T10:02:15;4.60;;;2.88;;
14681;SDS011;7429;52.498;13.480;2023-07-13T10:05:42;4.10;;;3.10;;
14681;SDS011;7429;52.498;13.480;2023-07-13T10:08:49;5.10;;;3.10;;
14681;SDS011;7429;52.498;13.480;2023-07-13T10:11:59;5.60;;;3.55;;
14681;SDS011;7429;52.498;13.480;2023-07-13T10:15:13;5.03;;;3.65;;
14681;SDS011;7429;52.498;13.480;2023-07-13T10:18:28;7.10;;;3.97;;
14681;SDS011;7429;52.498;13.480;2023-07-13T10:21:43;8.38;;;4.00;;
14681;SDS011;7429;52.498;13.480;2023-07-13T10:24:56;7.38;;;3.60;;
14681;SDS011;7429;52.498;13.480;2023-07-13T10:28:21;4.10;;;3.38;;
14681;SDS011;7429;52.498;13.480;2023-07-13T10:31:30;6.80;;;3.58;;
14681;SDS011;7429;52.498;13.480;2023-07-13T10:34:36;4.38;;;3.58;;
14681;SDS011;7429;52.498;13.480;2023-07-13T10:37:43;5.90;;;3.30;;
14681;SDS011;7429;52.498;13.480;2023-07-13T10:40:54;4.55;;;3.67;;
14681;SDS011;7429;52.498;13.480;2023-07-13T10:44:09;4.68;;;3.13;;
14681;SDS011;7429;52.498;13.480;2023-07-13T10:47:24;6.05;;;3.17;;
14681;SDS011;7429;52.498;13.480;2023-07-13T10:50:31;8.05;;;3.90;;
14681;SDS011;7429;52.498;13.480;2023-07-13T10:53:47;6.50;;;3.15;;
14681;SDS011;7429;52.498;13.480;2023-07-13T10:57:21;7.10;;;3.28;;
14681;SDS011;7429;52.498;13.480;2023-07-13T11:00:31;4.22;;;2.97;;
14681;SDS011;7429;52.498;13.480;2023-07-13T11:03:46;5.95;;;3.30;;
14681;SDS011;7429;52.498;13.480;2023-07-13T11:06:56;4.45;;;3.22;;
14681;SDS011;7429;52.498;13.480;2023-07-13T11:10:30;4.13;;;3.05;;
14681;SDS011;7429;52.498;13.480;2023-07-13T11:14:00;5.97;;;2.90;;
14681;SDS011;7429;52.498;13.480;2023-07-13T11:17:33;7.20;;;3.60;;
14681;SDS011;7429;52.498;13.480;2023-07-13T11:20:40;5.32;;;3.38;;
14681;SDS011;7429;52.498;13.480;2023-07-13T11:23:52;5.13;;;2.90;;
14681;SDS011;7429;52.498;13.480;2023-07-13T11:27:22;4.28;;;2.85;;
14681;SDS011;7429;52.498;13.480;2023-07-13T11:34:29;4.35;;;2.60;;
14681;SDS011;7429;52.498;13.480;2023-07-13T11:37:38;3.47;;;2.28;;
14681;SDS011;7429;52.498;13.480;2023-07-13T11:40:47;4.95;;;3.10;;
14681;SDS011;7429;52.498;13.480;2023-07-13T11:44:11;6.70;;;3.53;;
14681;SDS011;7429;52.498;13.480;2023-07-13T11:47:24;3.42;;;3.00;;
14681;SDS011;7429;52.498;13.480;2023-07-13T11:50:37;3.67;;;2.53;;
14681;SDS011;7429;52.498;13.480;2023-07-13T11:53:44;5.57;;;3.42;;
14681;SDS011;7429;52.498;13.480;2023-07-13T11:57:06;6.53;;;3.78;;
14681;SDS011;7429;52.498;13.480;2023-07-13T12:00:33;6.22;;;2.97;;
14681;SDS011;7429;52.498;13.480;2023-07-13T12:03:42;5.53;;;3.25;;
14681;SDS011;7429;52.498;13.480;2023-07-13T12:06:57;4.10;;;2.72;;
14681;SDS011;7429;52.498;13.480;2023-07-13T12:10:19;7.15;;;2.67;;
14681;SDS011;7429;52.498;13.480;2023-07-13T12:13:50;5.72;;;2.92;;
14681;SDS011;7429;52.498;13.480;2023-07-13T12:17:25;7.60;;;2.75;;
14681;SDS011;7429;52.498;13.480;2023-07-13T12:20:54;6.93;;;3.05;;
14681;SDS011;7429;52.498;13.480;2023-07-13T12:24:15;7.25;;;3.08;;
14681;SDS011;7429;52.498;13.480;2023-07-13T12:27:28;6.05;;;2.75;;
14681;SDS011;7429;52.498;13.480;2023-07-13T12:30:34;4.80;;;3.13;;
14681;SDS011;7429;52.498;13.480;2023-07-13T12:33:46;4.85;;;2.45;;
14681;SDS011;7429;52.498;13.480;2023-07-13T12:37:02;3.58;;;2.55;;
14681;SDS011;7429;52.498;13.480;2023-07-13T12:40:20;9.38;;;3.63;;
14681;SDS011;7429;52.498;13.480;2023-07-13T12:43:35;7.13;;;2.80;;
14681;SDS011;7429;52.498;13.480;2023-07-13T12:46:51;8.02;;;3.47;;
14681;SDS011;7429;52.498;13.480;2023-07-13T12:49:58;4.93;;;2.35;;
14681;SDS011;7429;52.498;13.480;2023-07-13T12:53:12;5.93;;;2.90;;
14681;SDS011;7429;52.498;13.480;2023-07-13T12:56:21;8.00;;;2.72;;
14681;SDS011;7429;52.498;13.480;2023-07-13T12:59:29;5.88;;;2.50;;
14681;SDS011;7429;52.498;13.480;2023-07-13T13:02:41;5.90;;;2.30;;
14681;SDS011;7429;52.498;13.480;2023-07-13T13:05:47;3.15;;;2.05;;
14681;SDS011;7429;52.498;13.480;2023-07-13T13:09:03;6.70;;;2.40;;
14681;SDS011;7429;52.498;13.480;2023-07-13T13:12:21;10.82;;;2.75;;
14681;SDS011;7429;52.498;13.480;2023-07-13T13:15:37;4.57;;;2.03;;
14681;SDS011;7429;52.498;13.480;2023-07-13T13:18:43;6.82;;;2.40;;
14681;SDS011;7429;52.498;13.480;2023-07-13T13:21:47;9.10;;;2.90;;
14681;SDS011;7429;52.498;13.480;2023-07-13T13:28:32;9.15;;;2.80;;
14681;SDS011;7429;52.498;13.480;2023-07-13T13:31:37;4.43;;;2.42;;
14681;SDS011;7429;52.498;13.480;2023-07-13T13:34:45;4.85;;;2.65;;
14681;SDS011;7429;52.498;13.480;2023-07-13T13:37:54;4.32;;;2.30;;
14681;SDS011;7429;52.498;13.480;2023-07-13T13:41:00;9.73;;;2.00;;
14681;SDS011;7429;52.498;13.480;2023-07-13T13:44:08;6.63;;;2.60;;
14681;SDS011;7429;52.498;13.480;2023-07-13T13:47:29;5.03;;;2.15;;
14681;SDS011;7429;52.498;13.480;2023-07-13T13:50:48;3.47;;;2.25;;
14681;SDS011;7429;52.498;13.480;2023-07-13T13:53:59;3.00;;;2.30;;
14681;SDS011;7429;52.498;13.480;2023-07-13T13:57:08;3.80;;;1.90;;
14681;SDS011;7429;52.498;13.480;2023-07-13T14:00:24;7.30;;;2.80;;
14681;SDS011;7429;52.498;13.480;2023-07-13T14:03:31;4.10;;;1.98;;
14681;SDS011;7429;52.498;13.480;2023-07-13T14:06:46;4.93;;;2.88;;
14681;SDS011;7429;52.498;13.480;2023-07-13T14:09:57;3.92;;;1.90;;
14681;SDS011;7429;52.498;13.480;2023-07-13T14:13:07;6.93;;;2.22;;
14681;SDS011;7429;52.498;13.480;2023-07-13T14:16:46;4.40;;;2.00;;
14681;SDS011;7429;52.498;13.480;2023-07-13T14:20:03;6.45;;;4.85;;
14681;SDS011;7429;52.498;13.480;2023-07-13T14:23:17;5.07;;;2.38;;
14681;SDS011;7429;52.498;13.480;2023-07-13T14:26:27;3.67;;;2.10;;
14681;SDS011;7429;52.498;13.480;2023-07-13T14:29:38;6.88;;;2.75;;
14681;SDS011;7429;52.498;13.480;2023-07-13T14:32:47;5.75;;;2.80;;
14681;SDS011;7429;52.498;13.480;2023-07-13T14:35:56;3.72;;;2.13;;
14681;SDS011;7429;52.498;13.480;2023-07-13T14:39:05;5.25;;;2.50;;
14681;SDS011;7429;52.498;13.480;2023-07-13T14:42:22;4.30;;;2.75;;
14681;SDS011;7429;52.498;13.480;2023-07-13T14:45:28;5.95;;;2.17;;
14681;SDS011;7429;52.498;13.480;2023-07-13T14:48:38;4.82;;;1.80;;
14681;SDS011;7429;52.498;13.480;2023-07-13T14:51:49;5.53;;;2.50;;
14681;SDS011;7429;52.498;13.480;2023-07-13T14:54:55;4.32;;;2.30;;
14681;SDS011;7429;52.498;13.480;2023-07-13T14:57:58;6.07;;;2.33;;
14681;SDS011;7429;52.498;13.480;2023-07-13T15:01:02;3.33;;;1.70;;
14681;SDS011;7429;52.498;13.480;2023-07-13T15:04:07;6.22;;;2.22;;
14681;SDS011;7429;52.498;13.480;2023-07-13T15:07:13;6.38;;;1.80;;
14681;SDS011;7429;52.498;13.480;2023-07-13T15:10:20;4.53;;;2.08;;
14681;SDS011;7429;52.498;13.480;2023-07-13T15:13:29;3.47;;;2.00;;
14681;SDS011;7429;52.498;13.480;2023-07-13T15:16:37;5.53;;;3.97;;
14681;SDS011;7429;52.498;13.480;2023-07-13T15:19:43;3.35;;;1.80;;
14681;SDS011;7429;52.498;13.480;2023-07-13T15:22:47;4.90;;;2.13;;
14681;SDS011;7429;52.498;13.480;2023-07-13T15:25:52;2.60;;;1.83;;
14681;SDS011;7429;52.498;13.480;2023-07-13T15:29:00;3.20;;;1.60;;
14681;SDS011;7429;52.498;13.480;2023-07-13T15:32:13;3.38;;;1.75;;
14681;SDS011;7429;52.498;13.480;2023-07-13T15:35:20;3.25;;;1.52;;
14681;SDS011;7429;52.498;13.480;2023-07-13T15:38:27;8.75;;;4.00;;
14681;SDS011;7429;52.498;13.480;2023-07-13T15:41:37;2.15;;;1.95;;
14681;SDS011;7429;52.498;13.480;2023-07-13T15:44:48;2.92;;;1.60;;
14681;SDS011;7429;52.498;13.480;2023-07-13T15:47:52;3.08;;;1.58;;
14681;SDS011;7429;52.498;13.480;2023-07-13T15:51:01;4.95;;;2.03;;
14681;SDS011;7429;52.498;13.480;2023-07-13T15:54:08;3.42;;;2.47;;
14681;SDS011;7429;52.498;13.480;2023-07-13T15:57:18;3.28;;;1.95;;
14681;SDS011;7429;52.498;13.480;2023-07-13T16:00:25;3.05;;;1.60;;
14681;SDS011;7429;52.498;13.480;2023-07-13T16:03:31;4.97;;;2.90;;
14681;SDS011;7429;52.498;13.480;2023-07-13T16:06:48;9.02;;;2.10;;
14681;SDS011;7429;52.498;13.480;2023-07-13T16:09:55;2.95;;;2.30;;
14681;SDS011;7429;52.498;13.480;2023-07-13T16:13:02;4.43;;;1.77;;
14681;SDS011;7429;52.498;13.480;2023-07-13T16:16:08;5.82;;;1.52;;
14681;SDS011;7429;52.498;13.480;2023-07-13T16:19:18;5.00;;;1.80;;
14681;SDS011;7429;52.498;13.480;2023-07-13T16:22:33;3.72;;;1.80;;
14681;SDS011;7429;52.498;13.480;2023-07-13T16:25:41;3.05;;;2.20;;
14681;SDS011;7429;52.498;13.480;2023-07-13T16:28:47;1.45;;;1.33;;
14681;SDS011;7429;52.498;13.480;2023-07-13T16:31:59;2.88;;;1.67;;
14681;SDS011;7429;52.498;13.480;2023-07-13T16:35:05;3.22;;;2.40;;
14681;SDS011;7429;52.498;13.480;2023-07-13T16:38:15;4.00;;;2.20;;
14681;SDS011;7429;52.498;13.480;2023-07-13T16:42:04;4.03;;;1.98;;
14681;SDS011;7429;52.498;13.480;2023-07-13T16:45:13;4.75;;;1.98;;
14681;SDS011;7429;52.498;13.480;2023-07-13T16:48:17;4.70;;;2.30;;
14681;SDS011;7429;52.498;13.480;2023-07-13T16:51:23;6.53;;;2.30;;
14681;SDS011;7429;52.498;13.480;2023-07-13T16:54:29;3.35;;;2.25;;
14681;SDS011;7429;52.498;13.480;2023-07-13T16:57:34;7.00;;;1.90;;
14681;SDS011;7429;52.498;13.480;2023-07-13T17:00:38;9.05;;;2.10;;
14681;SDS011;7429;52.498;13.480;2023-07-13T17:03:43;9.25;;;2.20;;
14681;SDS011;7429;52.498;13.480;2023-07-13T17:06:47;5.30;;;2.83;;
14681;SDS011;7429;52.498;13.480;2023-07-13T17:09:53;3.25;;;2.33;;
14681;SDS011;7429;52.498;13.480;2023-07-13T17:12:56;6.30;;;2.67;;
14681;SDS011;7429;52.498;13.480;2023-07-13T17:16:02;31.17;;;4.03;;
14681;SDS011;7429;52.498;13.480;2023-07-13T17:19:10;17.90;;;3.58;;
14681;SDS011;7429;52.498;13.480;2023-07-13T17:22:16;13.27;;;4.13;;
14681;SDS011;7429;52.498;13.480;2023-07-13T17:25:28;8.35;;;3.67;;
14681;SDS011;7429;52.498;13.480;2023-07-13T17:28:32;17.98;;;4.03;;
14681;SDS011;7429;52.498;13.480;2023-07-13T17:31:35;12.02;;;5.47;;
14681;SDS011;7429;52.498;13.480;2023-07-13T17:34:39;8.48;;;3.80;;
14681;SDS011;7429;52.498;13.480;2023-07-13T17:37:46;6.72;;;4.38;;
14681;SDS011;7429;52.498;13.480;2023-07-13T17:40:51;4.65;;;3.50;;
14681;SDS011;7429;52.498;13.480;2023-07-13T17:43:54;7.65;;;3.80;;
14681;SDS011;7429;52.498;13.480;2023-07-13T17:46:58;5.85;;;5.07;;
14681;SDS011;7429;52.498;13.480;2023-07-13T17:50:09;5.15;;;4.65;;
14681;SDS011;7429;52.498;13.480;2023-07-13T17:53:17;4.70;;;3.25;;
14681;SDS011;7429;52.498;13.480;2023-07-13T17:56:23;10.50;;;3.63;;
14681;SDS011;7429;52.498;13.480;2023-07-13T17:59:27;8.75;;;4.20;;
14681;SDS011;7429;52.498;13.480;2023-07-13T18:02:31;7.65;;;3.40;;
14681;SDS011;7429;52.498;13.480;2023-07-13T18:05:34;4.82;;;4.10;;
14681;SDS011;7429;52.498;13.480;2023-07-13T18:08:39;3.10;;;2.70;;
14681;SDS011;7429;52.498;13.480;2023-07-13T18:11:44;3.50;;;3.20;;
14681;SDS011;7429;52.498;13.480;2023-07-13T18:14:47;5.07;;;3.20;;
14681;SDS011;7429;52.498;13.480;2023-07-13T18:17:51;5.38;;;4.35;;
14681;SDS011;7429;52.498;13.480;2023-07-13T18:20:54;4.35;;;3.88;;
14681;SDS011;7429;52.498;13.480;2023-07-13T18:23:57;4.93;;;4.35;;
14681;SDS011;7429;52.498;13.480;2023-07-13T18:27:04;5.35;;;3.45;;
14681;SDS011;7429;52.498;13.480;2023-07-13T18:30:10;6.18;;;5.00;;
14681;SDS011;7429;52.498;13.480;2023-07-13T18:33:18;4.85;;;4.35;;
14681;SDS011;7429;52.498;13.480;2023-07-13T18:36:24;4.78;;;4.38;;
14681;SDS011;7429;52.498;13.480;2023-07-13T18:39:27;9.18;;;4.00;;
14681;SDS011;7429;52.498;13.480;2023-07-13T18:42:32;4.05;;;3.63;;
14681;SDS011;7429;52.498;13.480;2023-07-13T18:45:36;6.38;;;3.85;;
14681;SDS011;7429;52.498;13.480;2023-07-13T18:48:39;6.03;;;3.88;;
14681;SDS011;7429;52.498;13.480;2023-07-13T18:51:42;4.53;;;4.13;;
14681;SDS011;7429;52.498;13.480;2023-07-13T18:54:45;4.10;;;3.60;;
14681;SDS011;7429;52.498;13.480;2023-07-13T18:57:50;5.10;;;4.20;;
14681;SDS011;7429;52.498;13.480;2023-07-13T19:00:55;5.60;;;5.18;;
14681;SDS011;7429;52.498;13.480;2023-07-13T19:04:00;8.15;;;6.30;;